PWSweather.com
Personal Weather Stations
Station Observations
TARRYHILL
Tarrytown, NY 10591

Tarrytown, NY 10591

Lat: 41.05185, Lon: -73.85296

Elevation: 341

Station Type: Davis Vantage Vue

www.tarrytownnyweather.com

High Low Average
Temperature 71.6°F22.0°C 55.2°F12.9°C 62.4°F16.9°C
Dew Point 65.5°F18.6°C 54.6°F12.6°C 60.2°F15.7°C
Winds 3.5 mph 5.6 kmh Calm Calm Calm SWCalm SW
Wind Gusts 3.5 mph5.6 kmh -- 1.0 mph1.6 kmh
Humidity 98% 80% 93%
Pressure 30.11 in1019.6 mb 29.98 in1015.2 mb -
Precipitation 0.30 in7.6 mm - -
Hour Temp Dew Point Humidity Winds Wind Gusts Pressure Precip Precip Rate Daily Precip Total
12:00 AM 55.4°F13.0°C 54.8°F12.7°C 98% Calm Calm 1.2 mph1.9 kmh 30.06 in1017.9 mb - 0.00 in0.0 mm 0.00 in0.0 mm
12:30 AM 55.4°F13.0°C 54.8°F12.7°C 98% Calm Calm -- 30.05 in1017.6 mb - 0.00 in0.0 mm 0.00 in0.0 mm
01:00 AM 55.4°F13.0°C 54.8°F12.7°C 98% Calm Calm -- 30.05 in1017.6 mb - 0.00 in0.0 mm 0.00 in0.0 mm
01:30 AM 55.4°F13.0°C 54.8°F12.7°C 98% Calm Calm -- 30.04 in1017.3 mb - 0.00 in0.0 mm 0.00 in0.0 mm
02:00 AM 55.3°F12.9°C 54.7°F12.6°C 98% Calm Calm -- 30.03 in1016.9 mb - 0.01 in0.3 mm 0.01 in0.3 mm
02:30 AM 55.2°F12.9°C 54.6°F12.6°C 98% Calm Calm -- 30.02 in1016.6 mb - 0.00 in0.0 mm 0.01 in0.3 mm
03:00 AM 55.2°F12.9°C 54.7°F12.6°C 98% Calm Calm -- 30.02 in1016.6 mb - 0.00 in0.0 mm 0.01 in0.3 mm
03:30 AM 55.3°F12.9°C 54.7°F12.6°C 98% Calm Calm -- 30.02 in1016.6 mb - 0.00 in0.0 mm 0.01 in0.3 mm
04:00 AM 55.4°F13.0°C 54.8°F12.7°C 98% Calm Calm -- 30.00 in1015.9 mb - 0.00 in0.0 mm 0.01 in0.3 mm
04:30 AM 55.5°F13.1°C 54.9°F12.7°C 98% Calm Calm -- 29.99 in1015.6 mb - 0.00 in0.0 mm 0.01 in0.3 mm
05:00 AM 55.5°F13.1°C 54.9°F12.7°C 98% Calm Calm 1.2 mph1.9 kmh 29.98 in1015.2 mb - 0.02 in0.5 mm 0.03 in0.8 mm
05:30 AM 55.6°F13.1°C 55.0°F12.8°C 98% Calm Calm 1.2 mph1.9 kmh 29.98 in1015.2 mb - 0.03 in0.8 mm 0.06 in1.5 mm
06:00 AM 55.7°F13.2°C 55.1°F12.8°C 98% Calm Calm -- 30.00 in1015.9 mb - 0.05 in1.3 mm 0.11 in2.8 mm
06:30 AM 55.9°F13.3°C 55.3°F12.9°C 98% Calm Calm -- 30.01 in1016.3 mb - 0.03 in0.8 mm 0.13 in3.3 mm
07:00 AM 56.3°F13.5°C 55.7°F13.2°C 98% Calm Calm -- 30.02 in1016.6 mb - 0.02 in0.5 mm 0.15 in3.8 mm
07:30 AM 56.5°F13.6°C 55.9°F13.3°C 98% Calm Calm -- 30.02 in1016.6 mb - 0.02 in0.5 mm 0.17 in4.3 mm
08:00 AM 56.9°F13.8°C 56.3°F13.5°C 98% Calm Calm -- 30.02 in1016.6 mb - 0.03 in0.8 mm 0.20 in5.1 mm
08:30 AM 57.5°F14.2°C 56.9°F13.8°C 98% Calm Calm -- 30.03 in1016.9 mb - 0.01 in0.3 mm 0.21 in5.3 mm
09:00 AM 57.7°F14.3°C 57.1°F13.9°C 98% Calm Calm -- 30.04 in1017.3 mb - 0.01 in0.3 mm 0.22 in5.6 mm
09:30 AM 57.9°F14.4°C 57.3°F14.1°C 98% Calm Calm -- 30.03 in1016.9 mb - 0.01 in0.3 mm 0.23 in5.8 mm
10:00 AM 59.2°F15.1°C 58.6°F14.8°C 98% Calm Calm 1.2 mph1.9 kmh 30.03 in1016.9 mb - 0.04 in1.0 mm 0.27 in6.9 mm
10:30 AM 59.1°F15.1°C 58.6°F14.8°C 98% Calm Calm -- 30.03 in1016.9 mb - 0.02 in0.5 mm 0.29 in7.4 mm
11:00 AM 60.7°F15.9°C 60.1°F15.6°C 98% 1.2 mph W1.9 kmh W 1.2 mph1.9 kmh 30.04 in1017.3 mb - 0.00 in0.0 mm 0.29 in7.4 mm
11:30 AM 59.9°F15.5°C 59.3°F15.2°C 98% Calm Calm -- 30.04 in1017.3 mb - 0.01 in0.3 mm 0.30 in7.6 mm
12:00 PM 61.0°F16.1°C 60.4°F15.8°C 98% Calm Calm 1.2 mph1.9 kmh 30.04 in1017.3 mb - 0.00 in0.0 mm 0.30 in7.6 mm
12:30 PM 61.3°F16.3°C 60.4°F15.8°C 97% 1.2 mph SW1.9 kmh SW 2.3 mph3.7 kmh 30.05 in1017.6 mb - 0.00 in0.0 mm 0.30 in7.6 mm
01:00 PM 63.8°F17.7°C 62.3°F16.8°C 95% Calm Calm -- 30.06 in1017.9 mb - 0.00 in0.0 mm 0.30 in7.6 mm
01:30 PM 65.0°F18.3°C 62.3°F16.8°C 91% Calm Calm -- 30.05 in1017.6 mb - 0.00 in0.0 mm 0.30 in7.6 mm
02:00 PM 66.7°F19.3°C 63.4°F17.4°C 89% Calm Calm -- 30.05 in1017.6 mb - 0.00 in0.0 mm 0.30 in7.6 mm
02:30 PM 68.1°F20.1°C 63.4°F17.4°C 85% 1.2 mph W1.9 kmh W 3.5 mph5.6 kmh 30.05 in1017.6 mb - 0.00 in0.0 mm 0.30 in7.6 mm
03:00 PM 68.3°F20.2°C 63.3°F17.4°C 84% Calm Calm -- 30.04 in1017.3 mb - 0.00 in0.0 mm 0.30 in7.6 mm
03:30 PM 69.3°F20.7°C 64.6°F18.1°C 85% 1.2 mph ESE1.9 kmh ESE 1.2 mph1.9 kmh 30.03 in1016.9 mb - 0.00 in0.0 mm 0.30 in7.6 mm
04:00 PM 71.6°F22.0°C 65.1°F18.4°C 80% 1.2 mph SSW1.9 kmh SSW 3.5 mph5.6 kmh 30.03 in1016.9 mb - 0.00 in0.0 mm 0.30 in7.6 mm
04:30 PM 71.1°F21.7°C 64.6°F18.1°C 80% 2.3 mph SW3.7 kmh SW 3.5 mph5.6 kmh 30.04 in1017.3 mb - 0.00 in0.0 mm 0.30 in7.6 mm
05:00 PM 71.0°F21.7°C 64.8°F18.2°C 81% 2.3 mph SW3.7 kmh SW 3.5 mph5.6 kmh 30.04 in1017.3 mb - 0.00 in0.0 mm 0.30 in7.6 mm
05:30 PM 71.2°F21.8°C 65.1°F18.4°C 81% 1.2 mph SW1.9 kmh SW 2.3 mph3.7 kmh 30.04 in1017.3 mb - 0.00 in0.0 mm 0.30 in7.6 mm
06:00 PM 70.9°F21.6°C 65.5°F18.6°C 83% Calm Calm 1.2 mph1.9 kmh 30.05 in1017.6 mb - 0.00 in0.0 mm 0.30 in7.6 mm
06:30 PM 70.5°F21.4°C 65.4°F18.6°C 84% 3.5 mph SSW5.6 kmh SSW 3.5 mph5.6 kmh 30.05 in1017.6 mb - 0.00 in0.0 mm 0.30 in7.6 mm
07:00 PM 69.6°F20.9°C 65.3°F18.5°C 86% Calm Calm 1.2 mph1.9 kmh 30.04 in1017.3 mb - 0.00 in0.0 mm 0.30 in7.6 mm
07:30 PM 68.9°F20.5°C 64.5°F18.1°C 86% 2.3 mph SSW3.7 kmh SSW 3.5 mph5.6 kmh 30.05 in1017.6 mb - 0.00 in0.0 mm 0.30 in7.6 mm
08:00 PM 68.1°F20.1°C 64.4°F18.0°C 88% 1.2 mph SSW1.9 kmh SSW 3.5 mph5.6 kmh 30.06 in1017.9 mb - 0.00 in0.0 mm 0.30 in7.6 mm
08:30 PM 67.3°F19.6°C 63.7°F17.6°C 88% Calm Calm 2.3 mph3.7 kmh 30.07 in1018.3 mb - 0.00 in0.0 mm 0.30 in7.6 mm
09:00 PM 66.6°F19.2°C 63.6°F17.6°C 90% Calm Calm -- 30.08 in1018.6 mb - 0.00 in0.0 mm 0.30 in7.6 mm
09:30 PM 66.0°F18.9°C 63.6°F17.6°C 92% Calm Calm -- 30.09 in1019.0 mb - 0.00 in0.0 mm 0.30 in7.6 mm
10:00 PM 65.8°F18.8°C 63.7°F17.6°C 93% Calm Calm -- 30.09 in1019.0 mb - 0.00 in0.0 mm 0.30 in7.6 mm
10:30 PM 65.7°F18.7°C 63.6°F17.6°C 93% Calm Calm -- 30.09 in1019.0 mb - 0.00 in0.0 mm 0.30 in7.6 mm
11:00 PM 65.0°F18.3°C 63.2°F17.3°C 94% Calm Calm 2.3 mph3.7 kmh 30.10 in1019.3 mb - 0.00 in0.0 mm 0.30 in7.6 mm
11:30 PM 65.0°F18.3°C 63.5°F17.5°C 95% Calm Calm -- 30.10 in1019.3 mb - 0.00 in0.0 mm 0.30 in7.6 mm